Doksany, Czech Republic

6:48 PM CET on December 09, 2016 (GMT +0100)
Strandgårdsvej | | Change Station

Elev 534 ft 50.46 °N, 14.23 °E | Updated 9 minutes ago

Overcast
Overcast
44.8 °F
Feels Like 45 °F
N
0.0
Wind Variable Wind from North
Gusts 1.2 mph

Today
High -- | Low -- °F
--% Chance of Precip.
Yesterday
High -- | Low -- °F
Precip. -- in
Pressure 30.33 in
Visibility 6.2 miles
Clouds Mostly Cloudy 1800 ft
Mostly Cloudy 2700 ft
Windchill 45 °F
Dew Point 42 °F
Humidity 89%
Rainfall 0.00 in
Snow Depth Not available.
7:52 AM 3:59 PM
Waxing Gibbous, 76% visible
METAR LKPR 091730Z 24014KT 9999 BKN018 BKN027 05/03 Q1027 NOSIG
Pressure 30.33 in
Visibility 6.2 miles
Clouds Mostly Cloudy 1800 ft
Mostly Cloudy 2700 ft
Windchill 45 °F
Dew Point 42 °F
Humidity 89%
Rainfall 0.00 in
Snow Depth Not available.
7:52 AM 3:59 PM
Waxing Gibbous, 76% visible
METAR LKPR 091730Z 24014KT 9999 BKN018 BKN027 05/03 Q1027 NOSIG

10-Day Weather Forecast

×

Almanac

Astronomy

Dec. 09, 2016 Rise Set
Actual Time
Civil Twilight
Nautical Twilight
Astronomical Twilight
Moon
Length of Visible Light
Length of Day
Tomorrow will be .
, % of the Moon is Illuminated

Today's Extremes

Country Highs Country Lows

Community

WunderPhotos

Upload Photos

1,956,462 photos uploaded!

WunderBlog® & News

Nearby

Air Quality

  Air Quality AQ Index Pollutant
Not available.

Snow Depth

Station Depth Elevation

Earthquake Activity

City Distance Mag. Time & Date
Minimum magnitude displayed is 2.5.

Coastal Water Temperatures

Place Temperature

Stations

Nearby Weather Stations

Station Location Temp. Windchill Dew Point Humidity Wind Precip. Elev Updated Type